Time;durP1;ratioP1;P1;durP2;ratioP2;P2;SDS_P1;SDS_P2;PMS_P1;PMS_P2;Temp;Humidity;BMP_temperature;BMP_pressure;BME280_temperature;BME280_humidity;BME280_pressure;Samples;Min_cycle;Max_cycle;Signal;HPM_P1;HPM_P2
2022/08/19 00:01:46;;;;;;;0.40;0.40;;;21.90;99.90;;;;;;5094168;28;20200;-70
2022/08/19 00:04:40;;;;;;;0.65;0.65;;;21.90;99.90;;;;;;5094047;28;20557;-70
2022/08/19 00:07:30;;;;;;;0.40;0.40;;;21.90;99.90;;;;;;5095791;28;20280;-70
2022/08/19 00:10:19;;;;;;;4.55;4.35;;;22.00;99.90;;;;;;5095376;28;20200;-70
2022/08/19 00:13:07;;;;;;;1.02;1.02;;;22.00;99.90;;;;;;5095029;28;20219;-70
2022/08/19 00:15:55;;;;;;;10.82;2.67;;;21.90;99.90;;;;;;5095281;28;20254;-70
2022/08/19 00:18:43;;;;;;;0.40;0.40;;;21.90;99.90;;;;;;5095122;28;20207;-70
2022/08/19 00:21:32;;;;;;;0.40;0.40;;;21.90;99.90;;;;;;5095150;28;20565;-70
2022/08/19 00:24:21;;;;;;;0.40;0.40;;;22.00;99.90;;;;;;5095188;28;20196;-70
2022/08/19 00:27:09;;;;;;;0.50;0.50;;;21.80;99.90;;;;;;5093561;28;20227;-70
2022/08/19 00:30:13;;;;;;;1.85;1.75;;;21.80;99.90;;;;;;5094257;28;20337;-70
2022/08/19 00:33:02;;;;;;;2.58;2.30;;;21.80;99.90;;;;;;5093276;28;20212;-69
2022/08/19 00:35:50;;;;;;;0.50;0.50;;;21.70;99.90;;;;;;5094194;28;20227;-69
2022/08/19 00:38:43;;;;;;;3.53;3.33;;;21.50;99.90;;;;;;5092742;28;20230;-70
2022/08/19 00:41:33;;;;;;;1.85;0.70;;;21.60;99.90;;;;;;5094882;28;20192;-70
2022/08/19 00:44:25;;;;;;;0.60;0.60;;;21.50;99.90;;;;;;5095210;28;20196;-70
2022/08/19 00:47:14;;;;;;;0.40;0.40;;;21.50;99.90;;;;;;5092709;28;20224;-69
2022/08/19 00:50:04;;;;;;;0.50;0.50;;;21.50;99.90;;;;;;5093049;28;20281;-72
2022/08/19 00:52:53;;;;;;;1.65;1.55;;;21.50;99.90;;;;;;5093328;28;20215;-70
2022/08/19 00:55:45;;;;;;;1.48;0.90;;;21.50;99.90;;;;;;5093296;28;20809;-70
2022/08/19 00:58:35;;;;;;;0.70;0.55;;;21.40;99.90;;;;;;5093919;28;20208;-70
2022/08/19 01:01:24;;;;;;;0.40;0.40;;;21.50;99.90;;;;;;5093997;28;20702;-70
2022/08/19 01:04:12;;;;;;;0.47;0.47;;;21.30;99.90;;;;;;5094627;28;20273;-70
2022/08/19 01:07:02;;;;;;;0.40;0.40;;;21.10;99.90;;;;;;5094272;28;20211;-70
2022/08/19 01:09:50;;;;;;;0.50;0.50;;;21.10;99.90;;;;;;5093638;28;20196;-70
2022/08/19 01:12:39;;;;;;;0.40;0.40;;;21.00;99.90;;;;;;5092629;28;20699;-71
2022/08/19 01:15:32;;;;;;;0.45;0.45;;;21.00;99.90;;;;;;5093106;28;20273;-70
2022/08/19 01:18:21;;;;;;;1.73;1.33;;;21.00;99.90;;;;;;5092350;28;20192;-70
2022/08/19 01:21:17;;;;;;;2.45;2.25;;;21.10;99.90;;;;;;5091857;28;20200;-69
2022/08/19 01:24:07;;;;;;;0.50;0.50;;;21.10;99.90;;;;;;5093494;28;20196;-70
2022/08/19 01:26:55;;;;;;;0.50;0.50;;;21.10;99.90;;;;;;5093643;28;20622;-69
2022/08/19 01:29:45;;;;;;;0.57;0.57;;;21.10;99.90;;;;;;5093361;28;20288;-70
2022/08/19 01:32:34;;;;;;;1.95;1.20;;;21.30;99.90;;;;;;5092060;28;20208;-70
2022/08/19 01:35:25;;;;;;;0.80;0.80;;;21.00;99.90;;;;;;5093631;28;20219;-73
2022/08/19 01:38:21;;;;;;;0.65;0.65;;;21.00;99.90;;;;;;5093446;28;20664;-71
2022/08/19 01:41:13;;;;;;;0.40;0.40;;;20.90;99.90;;;;;;5092535;28;20200;-71
2022/08/19 01:44:03;;;;;;;0.40;0.40;;;20.90;99.90;;;;;;5090504;28;20203;-71
2022/08/19 01:47:06;;;;;;;1.35;0.82;;;20.90;99.90;;;;;;5082930;28;20227;-69
2022/08/19 01:49:55;;;;;;;0.40;0.40;;;20.70;99.90;;;;;;5076117;28;20212;-71
2022/08/19 01:52:44;;;;;;;1.40;1.40;;;20.70;99.90;;;;;;5072027;28;20197;-70
2022/08/19 01:55:33;;;;;;;0.40;0.40;;;20.70;99.90;;;;;;5073150;28;20300;-70
2022/08/19 01:58:29;;;;;;;0.40;0.40;;;20.70;99.90;;;;;;5075929;28;20254;-71
2022/08/19 02:01:17;;;;;;;0.80;0.80;;;20.70;99.90;;;;;;5073200;28;20250;-71
2022/08/19 02:04:06;;;;;;;0.40;0.40;;;20.80;99.90;;;;;;5073977;28;20204;-71
2022/08/19 02:06:54;;;;;;;0.40;0.40;;;20.70;99.90;;;;;;5075326;28;20220;-71
2022/08/19 02:09:42;;;;;;;0.63;0.63;;;20.30;99.90;;;;;;5074833;28;20250;-71
2022/08/19 02:12:30;;;;;;;2.20;2.03;;;20.80;99.90;;;;;;5075335;28;20196;-71
2022/08/19 02:15:24;;;;;;;3.00;2.53;;;20.70;99.90;;;;;;5076130;28;20258;-71
2022/08/19 02:18:13;;;;;;;0.40;0.40;;;20.70;99.90;;;;;;5089962;28;20223;-70
2022/08/19 02:21:01;;;;;;;0.40;0.40;;;20.60;99.90;;;;;;5086736;28;20205;-70
2022/08/19 02:23:49;;;;;;;3.35;3.05;;;20.50;99.90;;;;;;5100264;28;20683;-69
2022/08/19 02:26:37;;;;;;;0.90;0.90;;;20.50;99.90;;;;;;5104319;28;20723;-70
2022/08/19 02:29:26;;;;;;;0.95;0.95;;;20.40;99.90;;;;;;5108244;28;20246;-72
2022/08/19 02:32:16;;;;;;;0.73;0.73;;;20.30;99.90;;;;;;5110518;28;20595;-70
2022/08/19 02:35:05;;;;;;;3.10;2.38;;;20.00;99.90;;;;;;5111286;28;20224;-70
2022/08/19 02:41:07;;;;;;;2.63;2.47;;;20.00;99.90;;;;;;5106730;28;20211;-70
2022/08/19 02:43:57;;;;;;;0.60;0.60;;;19.80;99.90;;;;;;5104564;28;20200;-70
2022/08/19 02:47:06;;;;;;;2.25;2.05;;;19.80;99.90;;;;;;5093581;28;20250;-70
2022/08/19 02:49:55;;;;;;;1.73;1.63;;;19.70;99.90;;;;;;5093169;28;20204;-71
2022/08/19 02:52:43;;;;;;;4.90;2.88;;;19.70;99.90;;;;;;5093521;28;20689;-72
2022/08/19 02:55:31;;;;;;;2.28;2.15;;;19.80;99.90;;;;;;5092847;28;20216;-71
2022/08/19 02:58:32;;;;;;;3.03;1.80;;;19.70;99.90;;;;;;5097201;28;20322;-71
2022/08/19 03:01:22;;;;;;;1.95;1.83;;;19.70;99.90;;;;;;5095078;28;20196;-71
2022/08/19 03:04:13;;;;;;;0.60;0.60;;;19.70;99.90;;;;;;5094949;28;20572;-70
2022/08/19 03:07:03;;;;;;;0.85;0.85;;;19.70;99.90;;;;;;5095012;28;20216;-72
2022/08/19 03:09:58;;;;;;;0.40;0.40;;;19.70;99.90;;;;;;5096660;28;20196;-71
2022/08/19 03:12:46;;;;;;;0.40;0.40;;;19.60;99.90;;;;;;5097291;28;20204;-71
2022/08/19 03:15:34;;;;;;;0.47;0.45;;;19.70;99.90;;;;;;5096719;28;20224;-70
2022/08/19 03:18:22;;;;;;;1.42;1.17;;;19.70;99.90;;;;;;5097117;28;20204;-71
2022/08/19 03:21:16;;;;;;;0.40;0.40;;;19.70;99.90;;;;;;5096344;28;20253;-70
2022/08/19 03:24:08;;;;;;;1.15;1.05;;;19.70;99.90;;;;;;5096819;28;20200;-71
2022/08/19 03:26:57;;;;;;;1.73;1.67;;;19.70;99.90;;;;;;5094900;28;20220;-71
2022/08/19 03:29:45;;;;;;;0.40;0.40;;;19.70;99.90;;;;;;5096116;28;20196;-71
2022/08/19 03:32:33;;;;;;;0.75;0.70;;;19.60;99.90;;;;;;5094587;28;20279;-71
2022/08/19 03:35:21;;;;;;;0.40;0.40;;;19.70;99.90;;;;;;5094555;28;20232;-71
2022/08/19 03:38:09;;;;;;;0.40;0.40;;;19.70;99.90;;;;;;5096022;28;20204;-71
2022/08/19 03:41:02;;;;;;;0.40;0.40;;;19.70;99.90;;;;;;5095426;28;20672;-71
2022/08/19 03:43:51;;;;;;;0.40;0.40;;;19.70;99.90;;;;;;5094822;28;20682;-71
2022/08/19 03:46:39;;;;;;;0.50;0.50;;;19.70;99.90;;;;;;5093858;28;20212;-71
2022/08/19 03:49:34;;;;;;;0.45;0.45;;;19.70;99.90;;;;;;5095103;28;20196;-71
2022/08/19 03:52:23;;;;;;;0.40;0.40;;;19.70;99.90;;;;;;5094981;28;20200;-70
2022/08/19 03:55:11;;;;;;;0.50;0.50;;;19.60;99.90;;;;;;5095561;28;20305;-70
2022/08/19 03:58:01;;;;;;;3.88;1.95;;;19.70;99.90;;;;;;5095948;28;20261;-70
2022/08/19 04:00:49;;;;;;;0.73;0.73;;;19.60;99.90;;;;;;5095817;28;20196;-71
2022/08/19 04:03:38;;;;;;;1.13;1.02;;;19.60;99.90;;;;;;5096088;28;20208;-70
2022/08/19 04:06:29;;;;;;;0.40;0.40;;;19.60;99.90;;;;;;5095112;28;20216;-71
2022/08/19 04:09:19;;;;;;;0.40;0.40;;;19.60;99.90;;;;;;5096163;28;20618;-70
2022/08/19 04:12:08;;;;;;;0.40;0.40;;;19.60;99.90;;;;;;5096592;28;20242;-71
2022/08/19 04:14:58;;;;;;;2.72;2.63;;;19.70;99.90;;;;;;5096743;28;20223;-71
2022/08/19 04:17:47;;;;;;;0.40;0.40;;;19.80;99.90;;;;;;5095005;28;20703;-71
2022/08/19 04:20:40;;;;;;;0.70;0.70;;;19.80;99.90;;;;;;5094404;28;20245;-71
2022/08/19 04:23:28;;;;;;;0.40;0.40;;;19.90;99.90;;;;;;5095580;28;20672;-70
2022/08/19 04:26:20;;;;;;;0.43;0.43;;;20.00;99.90;;;;;;5096824;28;20220;-71
2022/08/19 04:29:12;;;;;;;0.85;0.85;;;20.00;99.90;;;;;;5096889;28;20203;-71
2022/08/19 04:32:02;;;;;;;0.40;0.40;;;20.00;99.90;;;;;;5095592;28;20608;-71
2022/08/19 04:34:58;;;;;;;0.40;0.40;;;20.00;99.90;;;;;;5096118;28;20258;-71
2022/08/19 04:38:03;;;;;;;0.40;0.40;;;20.10;99.90;;;;;;5094437;28;20280;-71
2022/08/19 04:43:58;;;;;;;0.40;0.40;;;20.10;99.90;;;;;;5093729;28;20200;-71
2022/08/19 04:46:51;;;;;;;0.40;0.40;;;20.10;99.90;;;;;;5096021;28;20219;-72
2022/08/19 04:49:41;;;;;;;0.40;0.40;;;20.10;99.90;;;;;;5093656;28;20196;-71
2022/08/19 04:52:31;;;;;;;0.40;0.40;;;20.10;99.90;;;;;;5096429;28;20208;-71
2022/08/19 04:55:19;;;;;;;0.40;0.40;;;20.20;99.90;;;;;;5095532;28;20220;-71
2022/08/19 04:58:07;;;;;;;0.40;0.40;;;20.20;99.90;;;;;;5095452;28;20196;-71
2022/08/19 05:00:55;;;;;;;0.40;0.40;;;20.30;99.90;;;;;;5107619;28;20212;-70
2022/08/19 05:03:43;;;;;;;0.40;0.40;;;20.30;99.90;;;;;;5114771;28;20224;-69
2022/08/19 05:06:34;;;;;;;0.77;0.77;;;20.40;99.90;;;;;;5116497;28;20211;-70
2022/08/19 05:09:22;;;;;;;0.40;0.40;;;20.50;99.90;;;;;;5113310;28;20212;-70
2022/08/19 05:12:11;;;;;;;0.40;0.40;;;20.60;99.90;;;;;;5115552;28;20214;-69
2022/08/19 05:15:00;;;;;;;0.40;0.40;;;20.60;99.90;;;;;;5116010;28;20222;-70
2022/08/19 05:23:57;;;;;;;0.40;0.40;;;20.80;99.90;;;;;;5093902;28;20239;-71
2022/08/19 05:26:47;;;;;;;0.60;0.60;;;20.90;99.90;;;;;;5097072;28;20208;-71
2022/08/19 05:29:35;;;;;;;0.40;0.40;;;21.00;99.90;;;;;;5097669;28;20191;-71
2022/08/19 05:32:24;;;;;;;1.85;1.75;;;21.00;99.90;;;;;;5105855;28;20207;-71
2022/08/19 05:35:12;;;;;;;0.60;0.60;;;21.10;99.90;;;;;;5106790;28;20223;-71
2022/08/19 05:38:00;;;;;;;0.40;0.40;;;21.10;99.90;;;;;;5103366;28;20207;-72
2022/08/19 05:40:49;;;;;;;0.50;0.50;;;21.10;99.90;;;;;;5107107;28;20196;-72
2022/08/19 05:43:38;;;;;;;0.40;0.40;;;21.10;99.90;;;;;;5106980;28;20211;-71
2022/08/19 05:46:26;;;;;;;1.60;1.42;;;21.10;99.90;;;;;;5108293;28;20692;-71
2022/08/19 05:49:16;;;;;;;0.80;0.80;;;21.20;99.90;;;;;;5109744;28;20203;-71
2022/08/19 05:52:06;;;;;;;3.90;0.77;;;21.30;99.90;;;;;;5107646;28;20195;-72
2022/08/19 05:54:55;;;;;;;0.70;0.70;;;21.30;99.90;;;;;;5097409;28;20192;-71
2022/08/19 05:57:45;;;;;;;0.40;0.40;;;21.50;99.90;;;;;;5094283;28;20211;-72
2022/08/19 06:00:33;;;;;;;0.88;0.88;;;21.70;99.90;;;;;;5093209;28;20587;-71
2022/08/19 06:03:21;;;;;;;20.08;1.40;;;21.90;99.90;;;;;;5094448;28;20192;-72
2022/08/19 06:06:11;;;;;;;1.50;1.40;;;22.00;99.90;;;;;;5092484;28;20212;-72
2022/08/19 06:08:59;;;;;;;0.65;0.65;;;22.00;99.90;;;;;;5093853;28;20200;-72
2022/08/19 06:11:49;;;;;;;3.10;2.85;;;22.00;99.90;;;;;;5093817;28;20688;-72
2022/08/19 06:14:43;;;;;;;0.40;0.40;;;22.10;99.90;;;;;;5094050;28;20574;-72
2022/08/19 06:17:34;;;;;;;4.00;3.42;;;22.30;99.90;;;;;;5092891;28;20208;-72
2022/08/19 06:20:22;;;;;;;3.35;3.13;;;22.50;99.90;;;;;;5091648;28;20214;-71
2022/08/19 06:23:31;;;;;;;1.95;1.80;;;22.40;99.90;;;;;;5092110;28;20309;-72
2022/08/19 06:26:21;;;;;;;1.30;1.30;;;22.50;99.90;;;;;;5094607;28;20220;-71
2022/08/19 06:29:11;;;;;;;1.55;1.33;;;22.50;99.90;;;;;;5091799;28;20200;-72
2022/08/19 06:32:12;;;;;;;2.70;1.77;;;22.50;99.90;;;;;;5095092;28;20203;-71
2022/08/19 06:35:00;;;;;;;0.40;0.40;;;22.60;99.90;;;;;;5097989;28;20702;-73
2022/08/19 06:37:48;;;;;;;2.78;1.35;;;22.60;99.90;;;;;;5093644;28;20227;-72
2022/08/19 06:40:37;;;;;;;0.93;0.93;;;22.70;99.90;;;;;;5097035;28;20546;-72
2022/08/19 06:43:25;;;;;;;0.40;0.40;;;22.90;99.90;;;;;;5097349;28;20206;-73
2022/08/19 06:46:18;;;;;;;3.40;1.40;;;23.00;99.90;;;;;;5097826;28;20300;-73
2022/08/19 06:49:09;;;;;;;0.40;0.40;;;23.10;99.90;;;;;;5095933;28;20306;-72
2022/08/19 06:51:59;;;;;;;0.50;0.50;;;23.20;99.90;;;;;;5097272;28;20196;-72
2022/08/19 06:54:49;;;;;;;5.43;4.60;;;23.20;99.90;;;;;;5085293;28;20201;-72
2022/08/19 06:57:45;;;;;;;0.40;0.40;;;23.10;99.90;;;;;;5075988;28;20224;-73
2022/08/19 07:00:34;;;;;;;2.28;2.15;;;23.10;99.90;;;;;;5076885;28;20203;-73
2022/08/19 07:03:22;;;;;;;0.75;0.55;;;23.10;99.90;;;;;;5093255;28;20227;-73
2022/08/19 07:06:17;;;;;;;3.15;1.63;;;23.10;99.90;;;;;;5093519;28;20333;-72
2022/08/19 07:09:25;;;;;;;0.40;0.40;;;23.30;99.90;;;;;;5078673;28;20200;-72
2022/08/19 07:12:15;;;;;;;0.40;0.40;;;23.30;99.90;;;;;;5100032;28;20246;-72
2022/08/19 07:15:04;;;;;;;1.60;0.82;;;23.50;99.90;;;;;;5104221;28;20236;-73
2022/08/19 07:17:55;;;;;;;1.98;1.02;;;23.70;99.90;;;;;;5107048;28;20223;-72
2022/08/19 07:20:45;;;;;;;1.02;1.00;;;23.60;99.90;;;;;;5103214;28;20204;-73
2022/08/19 07:23:35;;;;;;;0.70;0.70;;;23.40;99.90;;;;;;5098296;28;20301;-72
2022/08/19 07:26:30;;;;;;;0.60;0.60;;;23.30;99.90;;;;;;5116174;28;20219;-72
2022/08/19 07:29:33;;;;;;;1.27;1.27;;;23.30;99.90;;;;;;5084564;28;20200;-73
2022/08/19 07:32:22;;;;;;;0.80;0.80;;;23.40;99.90;;;;;;5074719;28;20211;-72
2022/08/19 07:35:10;;;;;;;1.13;0.60;;;23.40;99.90;;;;;;5096731;28;20196;-72
2022/08/19 07:38:02;;;;;;;0.63;0.63;;;23.30;99.90;;;;;;5097268;28;20227;-73
2022/08/19 07:40:52;;;;;;;1.35;1.25;;;23.30;99.90;;;;;;5096670;28;20438;-72
2022/08/19 07:43:40;;;;;;;2.38;1.88;;;23.40;99.90;;;;;;5096026;28;20246;-72
2022/08/19 07:46:30;;;;;;;0.40;0.40;;;23.30;99.90;;;;;;5097283;28;20265;-72
2022/08/19 07:49:19;;;;;;;0.40;0.40;;;23.30;99.90;;;;;;5096655;28;20204;-73
2022/08/19 07:52:09;;;;;;;0.40;0.40;;;23.50;99.90;;;;;;5096158;28;20553;-72
2022/08/19 07:54:59;;;;;;;0.60;0.60;;;23.70;99.90;;;;;;5096399;28;20246;-70
2022/08/19 07:57:49;;;;;;;0.90;0.90;;;23.80;99.90;;;;;;5091626;28;20621;-71
2022/08/19 08:00:37;;;;;;;1.02;1.00;;;24.00;99.90;;;;;;5088260;28;20287;-71
2022/08/19 08:09:37;;;;;;;0.40;0.40;;;24.00;99.90;;;;;;5089049;28;20203;-71
2022/08/19 08:12:30;;;;;;;0.82;0.82;;;23.90;99.90;;;;;;5082372;28;20651;-71
2022/08/19 08:15:22;;;;;;;2.97;2.30;;;;;;;;;;5113573;22;20236;31
2022/08/19 08:18:13;;;;;;;0.40;0.40;;;24.00;99.90;;;;;;5035172;28;20668;-67
2022/08/19 08:21:01;;;;;;;2.85;2.65;;;24.10;99.90;;;;;;5035738;28;20198;-67
2022/08/19 08:23:51;;;;;;;0.73;0.73;;;24.10;99.90;;;;;;5041163;28;20202;-68
2022/08/19 08:26:43;;;;;;;2.35;2.25;;;24.30;99.90;;;;;;5075213;28;20201;-67
2022/08/19 08:29:34;;;;;;;5.22;4.72;;;24.50;99.90;;;;;;5074042;28;20229;-68
2022/08/19 08:32:23;;;;;;;5.88;2.63;;;24.70;99.90;;;;;;5063800;28;20206;-68
2022/08/19 08:35:16;;;;;;;2.83;1.85;;;24.60;99.90;;;;;;5073679;28;20193;-68
2022/08/19 08:38:04;;;;;;;4.15;1.63;;;24.60;99.90;;;;;;5071682;28;20221;-68
2022/08/19 08:40:58;;;;;;;1.13;1.10;;;24.50;99.90;;;;;;5069866;28;20198;-68
2022/08/19 08:43:50;;;;;;;0.80;0.80;;;24.50;99.90;;;;;;5055984;28;20193;-68
2022/08/19 08:46:45;;;;;;;2.15;1.98;;;24.60;99.90;;;;;;5054211;28;20276;-68
2022/08/19 08:49:44;;;;;;;0.60;0.60;;;24.40;99.90;;;;;;5053836;28;20677;-68
2022/08/19 08:52:37;;;;;;;4.57;3.70;;;24.40;99.90;;;;;;5053773;28;20255;-68
2022/08/19 08:55:30;;;;;;;0.40;0.40;;;24.20;99.90;;;;;;5053791;28;20208;-67
2022/08/19 08:58:41;;;;;;;8.07;3.33;;;24.00;99.90;;;;;;5044071;28;20227;-68
2022/08/19 09:01:29;;;;;;;1.20;1.10;;;24.10;99.90;;;;;;5032901;28;20205;-68
2022/08/19 09:04:18;;;;;;;4.88;2.58;;;24.40;99.90;;;;;;5043934;28;20201;-68
2022/08/19 09:07:23;;;;;;;0.40;0.40;;;24.60;99.90;;;;;;5052899;28;20264;-68
2022/08/19 09:10:32;;;;;;;0.40;0.40;;;24.50;99.90;;;;;;5052010;28;20205;-68
2022/08/19 09:13:31;;;;;;;0.40;0.40;;;24.40;99.90;;;;;;5053008;28;20674;-68
2022/08/19 09:16:27;;;;;;;0.40;0.40;;;24.30;99.90;;;;;;5053016;28;20316;-68
2022/08/19 09:19:15;;;;;;;1.02;1.02;;;24.20;99.90;;;;;;5057188;28;20197;-67
2022/08/19 09:22:09;;;;;;;0.40;0.40;;;24.10;99.90;;;;;;5063023;28;20201;-68
2022/08/19 09:24:57;;;;;;;0.40;0.40;;;23.80;99.90;;;;;;5040085;28;20690;-68
2022/08/19 09:27:47;;;;;;;1.92;1.77;;;23.60;99.90;;;;;;5041865;28;20209;-67
2022/08/19 09:30:41;;;;;;;1.00;1.00;;;23.60;99.90;;;;;;5044629;28;20198;-68
2022/08/19 09:33:29;;;;;;;7.30;3.83;;;23.70;99.90;;;;;;5068134;28;20189;-68
2022/08/19 09:36:19;;;;;;;0.40;0.40;;;23.60;99.90;;;;;;5071346;28;20217;-71
2022/08/19 09:39:22;;;;;;;1.40;1.40;;;23.60;99.90;;;;;;5057862;28;20283;-68
2022/08/19 09:42:11;;;;;;;0.50;0.50;;;23.40;99.90;;;;;;5052594;28;20852;-68
2022/08/19 09:45:09;;;;;;;1.50;1.27;;;23.30;99.90;;;;;;5052235;28;20197;-67
2022/08/19 09:47:58;;;;;;;0.93;0.93;;;23.30;99.90;;;;;;5050872;28;20674;-68
2022/08/19 09:50:46;;;;;;;15.93;4.93;;;23.20;99.90;;;;;;5051478;28;20209;-68
2022/08/19 09:53:40;;;;;;;0.77;0.77;;;23.10;99.90;;;;;;5050789;28;20279;-67
2022/08/19 09:56:28;;;;;;;9.00;4.32;;;23.00;99.90;;;;;;5049585;28;20253;-68
2022/08/19 09:59:17;;;;;;;3.15;1.50;;;23.00;99.90;;;;;;5052354;28;20217;-67
2022/08/19 10:02:07;;;;;;;0.40;0.40;;;23.10;99.90;;;;;;5065030;28;20209;-68
2022/08/19 10:08:13;;;;;;;7.57;5.20;;;23.20;99.90;;;;;;5051489;28;20290;-68
2022/08/19 10:11:03;;;;;;;4.45;4.15;;;23.10;99.90;;;;;;5051588;28;20201;-68
2022/08/19 10:14:11;;;;;;;5.38;4.85;;;23.00;99.90;;;;;;5051832;28;20583;-67
2022/08/19 10:17:00;;;;;;;0.88;0.88;;;22.90;99.90;;;;;;5051605;28;20233;-67
2022/08/19 10:20:02;;;;;;;2.45;2.25;;;22.80;99.90;;;;;;5050956;28;20197;-68
2022/08/19 10:22:50;;;;;;;16.33;8.05;;;22.90;99.90;;;;;;5047572;28;20666;-68
2022/08/19 10:25:40;;;;;;;14.48;7.82;;;22.90;99.90;;;;;;5038037;28;20297;-67
2022/08/19 10:28:30;;;;;;;14.52;6.28;;;23.00;99.90;;;;;;5063702;28;20214;-67
2022/08/19 10:31:22;;;;;;;9.73;4.90;;;23.10;99.90;;;;;;5050258;28;20201;-68
2022/08/19 10:34:31;;;;;;;2.45;1.50;;;23.10;99.90;;;;;;5068591;28;20287;-68
2022/08/19 10:37:21;;;;;;;0.40;0.40;;;22.90;99.90;;;;;;5071393;28;20728;-67
2022/08/19 10:40:16;;;;;;;10.13;6.28;;;22.80;99.90;;;;;;5070549;28;20204;-70
2022/08/19 10:43:04;;;;;;;7.47;7.15;;;22.80;99.90;;;;;;5073773;28;20253;-67
2022/08/19 10:45:56;;;;;;;13.60;5.07;;;22.60;99.90;;;;;;5060808;28;20221;-67
2022/08/19 10:48:45;;;;;;;8.00;4.20;;;22.60;99.90;;;;;;5049605;28;20202;-68
2022/08/19 10:57:53;;;;;;;8.07;1.30;;;22.70;99.90;;;;;;5043977;28;20601;-69
2022/08/19 11:00:53;;;;;;;3.67;3.33;;;22.70;99.90;;;;;;5053062;28;20235;-68
2022/08/19 11:03:42;;;;;;;11.07;5.93;;;22.60;99.90;;;;;;5056056;28;20197;-67
2022/08/19 11:06:32;;;;;;;1.67;1.58;;;22.60;99.90;;;;;;5053444;28;20221;-68
2022/08/19 11:09:24;;;;;;;0.40;0.40;;;22.50;99.90;;;;;;5054088;28;20193;-68
2022/08/19 11:12:22;;;;;;;9.85;6.43;;;22.50;99.90;;;;;;5054020;28;20204;-68
2022/08/19 11:15:11;;;;;;;2.72;2.42;;;22.60;99.90;;;;;;5051437;28;20197;-68
2022/08/19 11:17:59;;;;;;;1.00;1.00;;;22.50;99.90;;;;;;5050422;28;20330;-67
2022/08/19 11:20:48;;;;;;;0.40;0.40;;;22.50;99.90;;;;;;5054806;28;20205;-68
2022/08/19 11:23:36;;;;;;;1.25;1.25;;;22.50;99.90;;;;;;5044289;28;20256;-67
2022/08/19 11:26:25;;;;;;;4.93;3.17;;;22.50;99.90;;;;;;5050790;28;20302;-68
2022/08/19 11:29:14;;;;;;;9.30;3.22;;;22.50;99.90;;;;;;5053801;28;20193;-68
2022/08/19 11:32:05;;;;;;;2.47;2.38;;;22.50;99.90;;;;;;5054123;28;20247;-67
2022/08/19 11:34:54;;;;;;;5.97;2.90;;;22.50;99.90;;;;;;5054649;28;20197;-67
2022/08/19 11:37:42;;;;;;;6.47;3.78;;;22.50;99.90;;;;;;5054446;28;20228;-68
2022/08/19 11:40:30;;;;;;;1.38;1.27;;;22.40;99.90;;;;;;5053763;28;20202;-68
2022/08/19 11:43:18;;;;;;;0.60;0.60;;;22.40;99.90;;;;;;5054016;28;20198;-68
2022/08/19 11:46:10;;;;;;;5.90;3.70;;;22.30;99.90;;;;;;5053115;28;20704;-67
2022/08/19 11:49:00;;;;;;;16.45;9.68;;;22.30;99.90;;;;;;5053410;28;20576;-68
2022/08/19 11:51:50;;;;;;;1.48;1.38;;;22.30;99.90;;;;;;5053604;28;20212;-68
2022/08/19 11:54:38;;;;;;;0.63;0.63;;;22.30;99.90;;;;;;5053387;28;20316;-69
2022/08/19 11:57:26;;;;;;;0.93;0.77;;;22.40;99.90;;;;;;5053219;28;20225;-68
2022/08/19 12:00:15;;;;;;;5.20;4.72;;;22.50;99.90;;;;;;5053402;28;20197;-68
2022/08/19 12:03:04;;;;;;;0.65;0.65;;;22.50;99.90;;;;;;5053172;28;20201;-68
2022/08/19 12:05:53;;;;;;;7.82;6.43;;;22.50;99.90;;;;;;5053383;28;20228;-68
2022/08/19 12:08:42;;;;;;;6.55;2.83;;;22.50;99.90;;;;;;5039870;28;20198;-68
2022/08/19 12:11:31;;;;;;;3.63;3.22;;;22.60;99.90;;;;;;5033771;28;20226;-68
2022/08/19 12:14:21;;;;;;;2.78;1.48;;;22.60;99.90;;;;;;5033180;28;20201;-67
2022/08/19 12:17:11;;;;;;;2.63;1.77;;;22.50;99.90;;;;;;5033606;28;20237;-68
2022/08/19 12:20:02;;;;;;;1.30;1.30;;;22.60;99.90;;;;;;5032929;28;20303;-69
2022/08/19 12:22:51;;;;;;;1.27;1.17;;;22.70;99.90;;;;;;5038996;28;20197;-68
2022/08/19 12:25:48;;;;;;;0.77;0.50;;;22.60;99.90;;;;;;5053935;28;20193;-68
2022/08/19 12:28:36;;;;;;;0.40;0.40;;;22.60;99.90;;;;;;5053018;28;20661;-68
2022/08/19 12:31:24;;;;;;;1.30;1.15;;;22.50;99.90;;;;;;5052742;28;20201;-68
2022/08/19 12:34:12;;;;;;;5.25;2.47;;;22.60;99.90;;;;;;5053472;28;20696;-67
2022/08/19 12:37:04;;;;;;;4.28;3.15;;;22.60;99.90;;;;;;5052953;28;20221;-68
2022/08/19 12:39:53;;;;;;;3.08;2.58;;;22.50;99.90;;;;;;5052570;28;20216;-68
2022/08/19 12:42:42;;;;;;;1.27;1.02;;;22.50;99.90;;;;;;5054809;28;20623;-68
2022/08/19 12:45:30;;;;;;;0.63;0.63;;;22.40;99.90;;;;;;5054935;28;20541;-68
2022/08/19 12:48:19;;;;;;;11.10;6.43;;;22.40;99.90;;;;;;5055591;28;20262;-68
2022/08/19 12:51:22;;;;;;;1.50;1.40;;;22.50;99.90;;;;;;5059598;28;20224;-68
2022/08/19 12:54:11;;;;;;;4.93;3.30;;;22.70;99.90;;;;;;5059845;28;20201;-68
2022/08/19 12:57:00;;;;;;;1.77;1.70;;;22.90;99.90;;;;;;5069743;28;20217;-68
2022/08/19 12:59:48;;;;;;;9.43;5.75;;;23.30;99.90;;;;;;5068655;28;20735;-68
2022/08/19 13:02:36;;;;;;;1.63;1.52;;;23.40;99.90;;;;;;5057225;28;20213;-70
2022/08/19 13:05:28;;;;;;;0.85;0.85;;;23.40;99.90;;;;;;5054366;28;20251;-69
2022/08/19 13:08:18;;;;;;;0.50;0.50;;;23.40;99.90;;;;;;5066870;28;20205;-68
2022/08/19 13:11:14;;;;;;;0.70;0.70;;;23.30;99.90;;;;;;5057788;28;20240;-70
2022/08/19 13:14:03;;;;;;;1.50;1.40;;;23.10;99.90;;;;;;5054295;28;20231;-69
2022/08/19 13:16:51;;;;;;;1.65;1.13;;;23.00;99.90;;;;;;5063292;28;20229;-70
2022/08/19 13:19:40;;;;;;;1.73;1.63;;;22.90;99.90;;;;;;5072301;28;20217;-69
2022/08/19 13:22:28;;;;;;;2.67;2.47;;;22.80;99.90;;;;;;5073294;28;20240;-70
2022/08/19 13:25:19;;;;;;;2.95;2.20;;;22.80;99.90;;;;;;5073568;28;20185;-70
2022/08/19 13:28:08;;;;;;;2.60;2.25;;;22.70;99.90;;;;;;5071864;28;20201;-70
2022/08/19 13:34:06;;;;;;;0.40;0.40;;;22.60;99.90;;;;;;5073585;28;20205;-70
2022/08/19 13:36:54;;;;;;;1.83;1.42;;;22.60;99.90;;;;;;5072285;28;20224;-69
2022/08/19 13:39:44;;;;;;;1.05;1.05;;;22.60;99.90;;;;;;5070359;28;20756;-70
2022/08/19 13:42:32;;;;;;;3.40;2.95;;;22.60;99.90;;;;;;5070995;28;20228;-69
2022/08/19 13:45:24;;;;;;;0.55;0.55;;;22.50;99.90;;;;;;5068812;28;20210;-71
2022/08/19 13:48:12;;;;;;;0.52;0.52;;;22.50;99.90;;;;;;5063727;28;20205;-70
2022/08/19 13:51:00;;;;;;;2.72;2.50;;;22.50;99.90;;;;;;5051568;28;20700;-70
2022/08/19 13:53:48;;;;;;;0.73;0.73;;;22.40;99.90;;;;;;5051802;28;20577;-70
2022/08/19 13:56:41;;;;;;;0.95;0.95;;;22.40;99.90;;;;;;5052230;28;20217;-69
2022/08/19 13:59:29;;;;;;;1.25;1.17;;;22.40;99.90;;;;;;5051678;28;20225;-70
2022/08/19 14:02:19;;;;;;;2.75;2.25;;;22.40;99.90;;;;;;5050889;28;20193;-69
2022/08/19 14:05:10;;;;;;;1.45;1.45;;;22.50;99.90;;;;;;5051737;28;20201;-69
2022/08/19 14:07:59;;;;;;;0.52;0.52;;;22.40;99.90;;;;;;5050621;28;20682;-69
2022/08/19 14:10:48;;;;;;;3.50;1.02;;;22.50;99.90;;;;;;5051648;28;20197;-70
2022/08/19 14:13:36;;;;;;;1.40;0.93;;;22.50;99.90;;;;;;5051902;28;20204;-69
2022/08/19 14:16:27;;;;;;;0.40;0.40;;;22.50;99.90;;;;;;5083084;22;20240;-66
2022/08/19 14:19:16;;;;;;;0.50;0.50;;;22.50;99.90;;;;;;5071687;28;20205;-65
2022/08/19 14:22:05;;;;;;;1.38;1.27;;;22.50;99.90;;;;;;5072329;28;20200;-65
2022/08/19 14:24:53;;;;;;;2.92;1.25;;;22.50;99.90;;;;;;5051368;28;20197;-65
2022/08/19 14:27:42;;;;;;;3.05;2.85;;;22.40;99.90;;;;;;5051023;28;20229;-67
2022/08/19 14:30:33;;;;;;;0.65;0.65;;;22.40;99.90;;;;;;5050408;28;20197;-66
2022/08/19 14:33:21;;;;;;;1.38;1.27;;;22.30;99.90;;;;;;5050016;28;20205;-66
2022/08/19 14:36:17;;;;;;;0.40;0.40;;;22.30;99.90;;;;;;5051180;28;20221;-65
2022/08/19 14:39:05;;;;;;;1.77;1.67;;;22.20;99.90;;;;;;5051325;28;20205;-67
2022/08/19 14:41:53;;;;;;;1.90;1.80;;;22.30;99.90;;;;;;5051074;28;20205;-65
2022/08/19 14:44:42;;;;;;;0.52;0.52;;;22.30;99.90;;;;;;5051895;28;20259;-64
2022/08/19 14:47:30;;;;;;;0.90;0.90;;;22.40;99.90;;;;;;5050634;28;20236;-65
2022/08/19 14:50:20;;;;;;;2.45;2.25;;;22.40;99.90;;;;;;5050440;28;20198;-66
2022/08/19 14:53:09;;;;;;;0.40;0.40;;;22.40;99.90;;;;;;5053325;28;20204;-66
2022/08/19 14:56:00;;;;;;;2.13;1.95;;;22.20;99.90;;;;;;5054458;28;20673;-66
2022/08/19 14:58:51;;;;;;;1.17;1.13;;;22.20;99.90;;;;;;5053870;28;20633;-67
2022/08/19 15:01:39;;;;;;;0.88;0.88;;;22.20;99.90;;;;;;5054104;28;20236;-65
2022/08/19 15:04:27;;;;;;;0.50;0.50;;;22.10;99.90;;;;;;5058863;28;20201;-67
2022/08/19 15:07:20;;;;;;;4.32;1.27;;;22.10;99.90;;;;;;5073427;28;20231;-65
2022/08/19 15:10:12;;;;;;;2.17;1.63;;;22.10;99.90;;;;;;5073473;28;20311;-67
2022/08/19 15:13:00;;;;;;;0.88;0.80;;;22.10;99.90;;;;;;5073591;28;20212;-66
2022/08/19 15:15:48;;;;;;;0.88;0.70;;;22.10;99.90;;;;;;5073587;28;20201;-66
2022/08/19 15:18:37;;;;;;;0.40;0.40;;;22.00;99.90;;;;;;5073685;28;20230;-66
2022/08/19 15:21:26;;;;;;;0.60;0.60;;;22.00;99.90;;;;;;5072886;28;20389;-69